Time;durP1;ratioP1;P1;durP2;ratioP2;P2;SDS_P1;SDS_P2;PMS_P1;PMS_P2;Temp;Humidity;BMP_temperature;BMP_pressure;BME280_temperature;BME280_humidity;BME280_pressure;Samples;Min_cycle;Max_cycle;Signal;HPM_P1;HPM_P2
2022/09/16 00:00:42;;;;;;;3.63;0.70;;;;;;;16.50;56.53;100150.59;5034115;27;98857;-68
2022/09/16 00:03:10;;;;;;;3.80;0.90;;;;;;;15.84;58.17;100151.56;5032521;27;98837;-67
2022/09/16 00:05:41;;;;;;;4.97;0.98;;;;;;;16.10;57.55;100148.97;5032911;27;97464;-67
2022/09/16 00:08:07;;;;;;;4.53;0.90;;;;;;;16.36;56.78;100150.69;5035282;28;97041;-68
2022/09/16 00:10:37;;;;;;;2.05;0.50;;;;;;;15.98;57.82;100147.97;5031791;28;98761;-67
2022/09/16 00:13:07;;;;;;;2.80;0.55;;;;;;;16.31;56.91;100148.34;5035201;27;98834;-68
2022/09/16 00:15:33;;;;;;;3.55;0.70;;;;;;;16.37;56.52;100155.09;5031213;28;97734;-68
2022/09/16 00:18:00;;;;;;;2.60;0.80;;;;;;;16.21;56.78;100144.59;5035825;27;96956;-69
2022/09/16 00:20:27;;;;;;;3.22;0.60;;;;;;;16.07;57.45;100152.69;5032060;28;99313;-68
2022/09/16 00:22:53;;;;;;;4.43;0.70;;;;;;;16.10;57.10;100154.28;5034839;28;97686;-67
2022/09/16 00:25:25;;;;;;;1.75;0.73;;;;;;;15.97;57.42;100140.94;5033055;27;96820;-70
2022/09/16 00:27:53;;;;;;;4.40;0.95;;;;;;;15.93;57.58;100150.09;5032012;28;96809;-67
2022/09/16 00:30:19;;;;;;;5.18;1.10;;;;;;;16.19;56.81;100140.34;5034203;27;99940;-67
2022/09/16 00:32:46;;;;;;;5.78;0.77;;;;;;;16.46;56.03;100141.13;5033246;27;98848;-67
2022/09/16 00:35:12;;;;;;;1.55;0.40;;;;;;;16.26;56.40;100146.97;5034184;27;98588;-67
2022/09/16 00:37:39;;;;;;;2.63;0.80;;;;;;;16.00;57.26;100154.06;5033495;27;96741;-67
2022/09/16 00:40:06;;;;;;;7.65;0.80;;;;;;;16.36;56.26;100153.38;5034822;27;99342;-68
2022/09/16 00:42:37;;;;;;;1.70;0.68;;;;;;;16.23;56.39;100153.34;5034517;27;98919;-67
2022/09/16 00:45:13;;;;;;;1.25;0.60;;;;;;;16.26;56.45;100158.50;5031873;28;96870;-68
2022/09/16 00:47:41;;;;;;;2.27;0.60;;;;;;;16.48;55.83;100154.31;5032472;27;96911;-68
2022/09/16 00:50:12;;;;;;;3.20;0.95;;;;;;;16.54;55.53;100146.75;5031075;27;99218;-68
2022/09/16 00:52:40;;;;;;;3.03;0.70;;;;;;;16.55;55.44;100161.81;5030582;27;98627;-67
2022/09/16 00:55:13;;;;;;;2.47;0.70;;;;;;;16.66;55.25;100164.63;5033548;27;96834;-67
2022/09/16 00:57:41;;;;;;;3.45;0.80;;;;;;;16.71;55.17;100165.16;5031041;27;96823;-67
2022/09/16 01:00:13;;;;;;;3.33;0.45;;;;;;;16.65;55.31;100156.72;5033510;28;99291;-66
2022/09/16 01:02:40;;;;;;;3.28;0.73;;;;;;;16.49;55.96;100161.38;5030085;27;98886;-67
2022/09/16 01:05:12;;;;;;;1.83;0.47;;;;;;;16.61;55.74;100160.56;5030043;27;96792;-67
2022/09/16 01:07:44;;;;;;;1.88;0.43;;;;;;;16.39;56.42;100162.97;5032584;28;96753;-67
2022/09/16 01:10:11;;;;;;;3.53;1.00;;;;;;;15.74;58.69;100158.47;5031106;27;98970;-67
2022/09/16 01:12:38;;;;;;;1.15;0.57;;;;;;;16.17;57.66;100167.09;5032540;28;99018;-68
2022/09/16 01:15:05;;;;;;;2.03;0.70;;;;;;;16.11;57.78;100164.84;5030993;27;98516;-68
2022/09/16 01:17:51;;;;;;;3.75;0.80;;;;;;;16.56;56.59;100157.31;5034078;27;97162;-67
2022/09/16 01:20:48;;;;;;;4.20;1.00;;;;;;;16.40;57.18;100157.56;5032752;28;99076;-71
2022/09/16 01:23:45;;;;;;;4.68;1.00;;;;;;;16.50;56.72;100155.94;5032424;28;98948;-67
2022/09/16 01:26:34;;;;;;;0.68;0.60;;;;;;;16.42;57.16;100165.41;5033168;28;96856;-68
2022/09/16 01:29:21;;;;;;;2.83;1.08;;;;;;;16.44;57.48;100160.84;5028622;28;98114;-67
2022/09/16 01:31:53;;;;;;;;;;;;;;;16.30;57.63;100162.66;5032836;28;99244;-68
2022/09/16 01:34:30;;;;;;;3.08;0.70;;;;;;;16.27;58.02;100160.22;5030451;28;101462;-67
2022/09/16 01:37:02;;;;;;;4.22;0.90;;;;;;;16.42;57.60;100162.75;5032684;28;97127;-68
2022/09/16 01:39:38;;;;;;;3.13;0.90;;;;;;;16.31;57.90;100156.34;5030459;27;97078;-67
2022/09/16 01:42:19;;;;;;;3.55;0.60;;;;;;;16.19;58.61;100161.66;5030085;28;99001;-67
2022/09/16 01:44:55;;;;;;;3.75;0.90;;;;;;;15.98;59.41;100163.97;5032094;27;101373;-68
2022/09/16 01:47:33;;;;;;;3.45;0.95;;;;;;;16.12;58.98;100161.22;4990657;28;1082612;-68
2022/09/16 01:50:08;;;;;;;3.45;0.80;;;;;;;16.19;58.97;100167.00;5032993;27;96801;-68
2022/09/16 01:52:45;;;;;;;6.53;1.13;;;;;;;16.22;58.93;100164.13;5031272;28;100904;-68
2022/09/16 01:55:18;;;;;;;4.47;0.70;;;;;;;16.13;59.19;100168.28;5031839;27;98944;-67
2022/09/16 01:57:52;;;;;;;4.65;0.85;;;;;;;16.24;58.74;100164.88;5028382;28;97127;-68
2022/09/16 02:00:22;;;;;;;4.45;1.00;;;;;;;16.14;59.40;100156.66;5032623;28;96853;-67
2022/09/16 02:02:55;;;;;;;2.85;0.65;;;;;;;16.08;59.60;100162.38;5031076;28;98991;-67
2022/09/16 02:05:26;;;;;;;3.58;0.80;;;;;;;15.78;60.51;100154.63;5028830;28;99012;-67
2022/09/16 02:07:59;;;;;;;5.75;1.00;;;;;;;15.68;61.20;100166.00;5033347;27;96750;-67
2022/09/16 02:10:30;;;;;;;4.28;0.90;;;;;;;15.74;61.28;100160.28;5032193;28;97286;-67
2022/09/16 02:13:02;;;;;;;3.97;1.13;;;;;;;15.78;61.07;100159.09;5032242;27;97939;-67
2022/09/16 02:15:33;;;;;;;6.97;0.95;;;;;;;15.92;60.66;100164.38;5029510;27;99142;-67
2022/09/16 02:18:05;;;;;;;4.20;0.70;;;;;;;15.82;60.99;100152.59;5030648;27;97204;-67
2022/09/16 02:20:37;;;;;;;6.10;1.10;;;;;;;16.13;60.06;100160.28;5031653;27;96865;-67
2022/09/16 02:23:09;;;;;;;4.05;1.17;;;;;;;16.08;60.05;100148.22;5031932;28;99021;-67
2022/09/16 02:25:39;;;;;;;5.38;1.10;;;;;;;16.14;59.83;100154.00;5032441;27;99189;-67
2022/09/16 02:28:11;;;;;;;2.97;1.20;;;;;;;16.15;59.81;100154.81;5032193;28;96780;-67
2022/09/16 02:30:43;;;;;;;6.47;1.10;;;;;;;16.09;60.24;100152.56;5029445;27;97860;-67
2022/09/16 02:33:14;;;;;;;4.43;0.80;;;;;;;15.71;61.46;100150.66;5032101;28;99172;-67
2022/09/16 02:35:41;;;;;;;3.75;0.80;;;;;;;15.24;63.20;100152.84;5030904;28;99051;-66
2022/09/16 02:38:13;;;;;;;3.35;1.20;;;;;;;15.45;62.87;100149.69;5032917;27;96917;-66
2022/09/16 02:40:48;;;;;;;9.70;1.20;;;;;;;15.48;62.81;100152.16;5026961;28;96848;-67
2022/09/16 02:43:14;;;;;;;2.67;1.30;;;;;;;15.65;62.14;100150.22;5032008;27;98684;-67
2022/09/16 02:45:52;;;;;;;6.75;1.13;;;;;;;15.68;61.94;100142.91;5028728;28;98813;-66
2022/09/16 02:48:28;;;;;;;10.45;1.77;;;;;;;15.73;61.77;100142.59;5026844;28;97606;-67
2022/09/16 02:51:03;;;;;;;7.03;1.23;;;;;;;15.62;62.10;100150.44;5022538;28;96823;-67
2022/09/16 02:53:41;;;;;;;3.63;0.98;;;;;;;15.79;61.62;100142.16;5032367;28;99382;-67
2022/09/16 02:56:16;;;;;;;4.15;1.10;;;;;;;15.72;61.86;100146.19;5030664;27;99153;-68
2022/09/16 02:58:42;;;;;;;3.00;1.02;;;;;;;15.68;61.88;100140.22;5029269;28;96806;-68
2022/09/16 03:01:12;;;;;;;6.15;1.15;;;;;;;15.57;62.46;100148.06;5029120;28;97417;-68
2022/09/16 03:03:40;;;;;;;5.30;1.30;;;;;;;15.50;62.50;100152.03;5032402;28;98984;-67
2022/09/16 03:06:15;;;;;;;4.57;1.08;;;;;;;15.56;62.50;100148.19;5031408;27;101018;-67
2022/09/16 03:08:43;;;;;;;6.88;1.13;;;;;;;15.60;62.31;100149.66;5032926;28;96827;-68
2022/09/16 03:11:36;;;;;;;6.82;1.10;;;;;;;15.33;62.85;100147.81;5030922;27;98374;-68
2022/09/16 03:14:28;;;;;;;7.90;1.17;;;;;;;15.58;62.55;100146.25;5030663;28;99572;-68
2022/09/16 03:17:04;;;;;;;2.75;1.05;;;;;;;15.75;61.93;100146.00;5031120;28;100150;-68
2022/09/16 03:19:40;;;;;;;4.80;1.10;;;;;;;15.78;61.83;100143.13;5025386;28;96809;-67
2022/09/16 03:22:19;;;;;;;7.65;1.35;;;;;;;15.91;61.27;100144.00;5029199;28;97659;-68
2022/09/16 03:24:58;;;;;;;6.03;1.67;;;;;;;15.58;62.24;100140.91;5030636;28;98227;-67
2022/09/16 03:27:31;;;;;;;8.73;1.90;;;;;;;15.58;62.16;100139.13;5026947;28;98744;-67
2022/09/16 03:30:04;;;;;;;10.98;1.40;;;;;;;15.79;61.89;100145.69;5029913;27;96870;-68
2022/09/16 03:32:35;;;;;;;8.70;1.55;;;;;;;15.64;62.02;100148.50;5031517;28;97266;-67
2022/09/16 03:35:09;;;;;;;8.25;1.58;;;;;;;15.72;61.76;100151.53;5031746;27;99396;-67
2022/09/16 03:37:39;;;;;;;5.28;1.58;;;;;;;15.72;61.83;100151.53;5031214;28;98806;-68
2022/09/16 03:40:10;;;;;;;6.03;1.27;;;;;;;15.86;61.46;100144.34;5031818;27;97042;-68
2022/09/16 03:42:38;;;;;;;5.90;1.17;;;;;;;15.98;60.81;100147.97;5030160;28;96830;-68
2022/09/16 03:45:05;;;;;;;6.63;1.42;;;;;;;15.88;nan;100144.22;5029290;28;99610;-68
2022/09/16 03:47:32;;;;;;;5.40;1.83;;;;;;;15.78;61.63;100141.31;5031719;28;99141;-68
2022/09/16 03:49:59;;;;;;;5.95;1.58;;;;;;;15.85;61.37;100144.44;5030683;27;96831;-68
2022/09/16 03:52:26;;;;;;;5.95;1.45;;;;;;;15.74;61.76;100141.63;5030618;27;96785;-67
2022/09/16 03:54:53;;;;;;;7.25;1.60;;;;;;;15.75;61.52;100143.34;5029634;27;98650;-68
2022/09/16 03:57:22;;;;;;;5.55;1.23;;;;;;;15.74;61.74;100138.97;5032029;28;99410;-67
2022/09/16 03:59:48;;;;;;;5.80;1.65;;;;;;;15.80;61.38;100138.56;5030390;27;96982;-68
2022/09/16 04:02:16;;;;;;;5.15;1.65;;;;;;;15.66;61.87;100143.94;5027897;27;96888;-68
2022/09/16 04:04:45;;;;;;;3.90;1.67;;;;;;;15.50;62.15;100141.38;5029691;27;97868;-67
2022/09/16 04:07:12;;;;;;;5.63;1.58;;;;;;;15.47;62.21;100131.81;5030949;27;98831;-67
2022/09/16 04:09:41;;;;;;;8.82;1.70;;;;;;;15.62;61.74;100129.13;5029588;28;96797;-67
2022/09/16 04:12:07;;;;;;;3.38;1.40;;;;;;;15.49;62.24;100132.53;5030683;28;96807;-67
2022/09/16 04:14:36;;;;;;;6.30;1.60;;;;;;;15.52;62.07;100119.06;5031270;28;99871;-67
2022/09/16 04:17:03;;;;;;;4.55;1.70;;;;;;;15.71;61.79;100136.50;5029691;27;99429;-68
2022/09/16 04:19:30;;;;;;;9.93;1.73;;;;;;;15.80;61.29;100134.09;5030355;28;96822;-68
2022/09/16 04:21:56;;;;;;;6.97;1.88;;;;;;;15.59;61.83;100132.84;5029929;28;96930;-67
2022/09/16 04:24:22;;;;;;;10.85;2.30;;;;;;;15.64;61.83;100145.84;5028983;28;99496;-67
2022/09/16 04:26:52;;;;;;;8.68;2.08;;;;;;;15.50;62.15;100152.88;5027386;27;99186;-68
2022/09/16 04:29:20;;;;;;;8.18;1.88;;;;;;;15.63;62.05;100141.47;5025997;28;97660;-67
2022/09/16 04:31:50;;;;;;;9.18;1.80;;;;;;;15.70;61.86;100140.09;5030397;27;96883;-67
2022/09/16 04:34:17;;;;;;;5.90;2.13;;;;;;;15.74;61.47;100138.97;5026072;28;98366;-67
2022/09/16 04:36:43;;;;;;;8.25;1.77;;;;;;;15.52;61.88;100147.47;5030609;28;100692;-68
2022/09/16 04:39:09;;;;;;;6.78;1.65;;;;;;;15.76;61.34;100145.03;5029226;28;96817;-68
2022/09/16 04:41:37;;;;;;;6.47;1.80;;;;;;;15.70;61.30;100134.78;5033252;28;98772;-67
2022/09/16 04:44:08;;;;;;;6.57;1.65;;;;;;;15.58;61.63;100140.91;5034753;27;97822;-67
2022/09/16 04:46:34;;;;;;;5.30;1.30;;;;;;;15.63;61.35;100130.81;5032156;28;99973;-67
2022/09/16 04:49:02;;;;;;;9.02;1.80;;;;;;;15.57;61.30;100139.19;5034796;27;97458;-68
2022/09/16 04:51:32;;;;;;;3.33;1.60;;;;;;;15.71;61.18;100132.03;5031194;28;96939;-68
2022/09/16 04:54:00;;;;;;;7.32;1.90;;;;;;;15.53;61.58;100133.25;5032624;28;97757;-67
2022/09/16 04:56:28;;;;;;;10.82;1.88;;;;;;;15.63;61.33;100130.81;5032599;27;98762;-67
2022/09/16 04:58:59;;;;;;;6.10;2.03;;;;;;;15.76;60.85;100126.38;5033117;28;97447;-67
2022/09/16 05:01:30;;;;;;;4.65;1.63;;;;;;;15.61;61.08;100130.94;5034354;28;97156;-67
2022/09/16 05:04:01;;;;;;;5.50;1.75;;;;;;;15.51;61.57;100135.97;5031612;27;97862;-67
2022/09/16 05:06:29;;;;;;;12.13;2.42;;;;;;;15.62;61.05;100135.28;5032730;27;98824;-67
2022/09/16 05:08:56;;;;;;;6.28;1.38;;;;;;;15.56;61.48;100140.19;5030342;28;96831;-67
2022/09/16 05:11:27;;;;;;;4.85;1.58;;;;;;;15.45;61.64;100131.03;5025606;27;98666;-70
2022/09/16 05:13:58;;;;;;;5.50;1.67;;;;;;;15.39;61.91;100135.91;5030628;27;100056;-67
2022/09/16 05:16:29;;;;;;;4.28;1.33;;;;;;;15.58;61.43;100132.94;5030536;27;100741;-67
2022/09/16 05:18:57;;;;;;;7.93;1.52;;;;;;;15.48;61.67;100135.31;5033505;28;97596;-67
2022/09/16 05:21:25;;;;;;;5.20;1.40;;;;;;;15.56;61.21;100127.69;5034727;28;96836;-67
2022/09/16 05:23:52;;;;;;;5.90;1.50;;;;;;;15.56;61.23;100129.53;5032436;27;99089;-68
2022/09/16 05:26:21;;;;;;;8.07;2.10;;;;;;;15.46;61.80;100135.41;5032838;28;99346;-68
2022/09/16 05:28:49;;;;;;;6.60;2.38;;;;;;;15.35;61.96;100135.28;5030685;27;96828;-68
2022/09/16 05:31:18;;;;;;;6.55;1.67;;;;;;;15.51;61.39;100135.09;5028741;28;96987;-69
2022/09/16 05:33:52;;;;;;;3.90;1.40;;;;;;;15.55;61.33;100134.00;5033936;27;99098;-67
2022/09/16 05:36:21;;;;;;;5.30;1.65;;;;;;;15.74;60.55;100128.31;5029980;28;99046;-67
2022/09/16 05:38:49;;;;;;;8.30;1.38;;;;;;;15.83;59.94;100128.53;5032962;27;96726;-67
2022/09/16 05:41:18;;;;;;;9.70;1.65;;;;;;;15.73;60.23;100138.13;5030123;28;98742;-67
2022/09/16 05:43:44;;;;;;;5.88;1.58;;;;;;;15.99;59.61;100141.69;5031400;27;98408;-67
2022/09/16 05:46:16;;;;;;;9.23;1.45;;;;;;;16.00;59.30;100135.41;5026753;27;99108;-67
2022/09/16 05:48:43;;;;;;;6.53;1.20;;;;;;;16.18;59.05;100133.31;5033012;27;98563;-68
2022/09/16 05:51:13;;;;;;;8.40;2.17;;;;;;;16.25;58.56;100134.59;5024787;27;98545;-68
2022/09/16 05:53:40;;;;;;;3.08;1.33;;;;;;;16.00;59.16;100134.56;5030063;28;98765;-67
2022/09/16 05:56:09;;;;;;;5.28;1.15;;;;;;;16.04;58.92;100142.22;5033485;27;100375;-68
2022/09/16 05:58:39;;;;;;;9.65;1.55;;;;;;;15.97;59.49;100134.75;5033864;28;96723;-68
2022/09/16 06:01:07;;;;;;;7.90;1.40;;;;;;;15.85;59.51;100136.44;5033082;27;96991;-67
2022/09/16 06:03:35;;;;;;;10.00;1.90;;;;;;;15.96;59.41;100139.22;5033372;28;99658;-69
2022/09/16 06:06:04;;;;;;;9.43;1.77;;;;;;;16.16;58.76;100133.41;5033446;27;100893;-69
2022/09/16 06:08:34;;;;;;;4.43;1.10;;;;;;;16.40;57.89;100138.88;5033849;28;96760;-68
2022/09/16 06:11:01;;;;;;;6.45;1.23;;;;;;;16.41;57.73;100140.56;5034008;28;96883;-68
2022/09/16 06:13:30;;;;;;;6.32;1.45;;;;;;;16.36;57.74;100137.38;5033754;28;97624;-66
2022/09/16 06:15:57;;;;;;;7.80;1.65;;;;;;;16.46;57.61;100149.13;5033289;27;98963;-66
2022/09/16 06:18:25;;;;;;;5.80;1.50;;;;;;;16.37;57.52;100132.88;5033037;28;96755;-66
2022/09/16 06:20:55;;;;;;;5.20;1.45;;;;;;;16.67;56.81;100138.81;5033380;28;96917;-67
2022/09/16 06:23:21;;;;;;;4.20;1.38;;;;;;;16.59;56.80;100130.47;5032579;28;98962;-67
2022/09/16 06:26:02;;;;;;;4.05;1.60;;;;;;;16.41;57.34;100132.56;5032864;27;99476;-66
2022/09/16 06:28:29;;;;;;;3.03;1.10;;;;;;;16.49;57.22;100135.56;5033422;28;96777;-65
2022/09/16 06:31:04;;;;;;;7.13;1.55;;;;;;;16.39;57.68;100137.16;5033549;27;96926;-66
2022/09/16 06:33:31;;;;;;;4.37;1.27;;;;;;;16.50;57.42;100141.75;5033254;28;98890;-69
2022/09/16 06:35:58;;;;;;;7.80;1.33;;;;;;;16.45;57.70;100133.22;5032986;27;98869;-66
2022/09/16 06:38:25;;;;;;;3.50;1.30;;;;;;;16.49;57.20;100132.03;5033369;28;96802;-65
2022/09/16 06:40:58;;;;;;;9.30;2.22;;;;;;;16.64;56.66;100137.19;5033769;28;96813;-65
2022/09/16 06:43:25;;;;;;;7.95;1.40;;;;;;;16.53;56.67;100129.06;5033293;28;98995;-66
2022/09/16 06:45:56;;;;;;;8.68;2.13;;;;;;;16.78;56.10;100128.22;5032582;27;98822;-67
2022/09/16 06:48:23;;;;;;;10.80;2.03;;;;;;;16.64;55.96;100128.34;5032121;28;96783;-65
2022/09/16 06:50:57;;;;;;;6.50;1.50;;;;;;;16.12;57.50;100129.25;5032992;28;96788;-66
2022/09/16 06:53:24;;;;;;;7.57;1.83;;;;;;;16.18;57.67;100127.97;5032914;28;99310;-65
2022/09/16 06:55:50;;;;;;;4.68;1.20;;;;;;;16.01;58.24;100118.47;5032224;28;98116;-67
2022/09/16 06:58:17;;;;;;;9.60;1.23;;;;;;;16.68;56.58;100127.16;5032864;28;96733;-67
2022/09/16 07:00:45;;;;;;;7.43;1.55;;;;;;;16.80;55.87;100126.31;5033221;27;97278;-67
2022/09/16 07:03:11;;;;;;;3.03;1.58;;;;;;;16.58;56.67;100126.06;5031917;27;102144;-66
2022/09/16 07:05:38;;;;;;;8.88;1.88;;;;;;;17.14;54.95;100138.06;5029017;28;98754;-66
2022/09/16 07:08:06;;;;;;;3.45;1.15;;;;;;;17.45;54.13;100139.41;5031126;27;98298;-66
2022/09/16 07:10:35;;;;;;;6.15;1.33;;;;;;;17.48;54.14;100144.50;5033054;27;96785;-67
2022/09/16 07:13:02;;;;;;;6.18;1.20;;;;;;;17.10;55.07;100150.81;5032833;27;97879;-65
2022/09/16 07:15:29;;;;;;;6.35;1.05;;;;;;;17.23;54.32;100149.91;5031692;28;99252;-66
2022/09/16 07:17:59;;;;;;;6.75;1.60;;;;;;;16.85;55.34;100144.66;5032373;27;96753;-66
2022/09/16 07:20:25;;;;;;;7.63;1.63;;;;;;;17.19;54.52;100137.78;5032758;28;97071;-67
2022/09/16 07:22:55;;;;;;;5.13;1.23;;;;;;;17.38;53.67;100140.81;5032083;27;98963;-66
2022/09/16 07:25:21;;;;;;;4.43;1.10;;;;;;;17.38;53.41;100132.78;5032312;28;98929;-66
2022/09/16 07:27:48;;;;;;;6.00;1.38;;;;;;;16.91;54.69;100126.41;5032504;27;97188;-68
2022/09/16 07:30:14;;;;;;;4.78;0.90;;;;;;;16.76;54.69;100134.63;5030625;28;96872;-66
2022/09/16 07:32:41;;;;;;;6.50;1.35;;;;;;;16.92;54.98;100141.44;5031684;27;99138;-66
2022/09/16 07:35:09;;;;;;;7.28;1.75;;;;;;;17.35;53.67;100133.84;5031860;27;97905;-67
2022/09/16 07:37:36;;;;;;;3.97;0.98;;;;;;;17.56;52.80;100144.78;5033527;28;96753;-66
2022/09/16 07:40:03;;;;;;;3.78;1.40;;;;;;;17.61;52.32;100142.66;5032083;27;97182;-66
2022/09/16 07:42:29;;;;;;;7.97;1.33;;;;;;;17.20;53.14;100145.63;5032010;28;98980;-66
2022/09/16 07:44:56;;;;;;;6.55;1.13;;;;;;;17.53;52.78;100139.66;5025326;27;97821;-67
2022/09/16 07:47:22;;;;;;;5.30;1.02;;;;;;;17.85;51.37;100135.47;5032387;28;96693;-69
2022/09/16 07:49:54;;;;;;;3.85;0.90;;;;;;;17.88;51.25;100135.25;5033259;28;97095;-66
2022/09/16 07:52:28;;;;;;;5.60;1.30;;;;;;;17.79;51.35;100135.94;5027840;28;98857;-67
2022/09/16 07:54:55;;;;;;;11.60;1.10;;;;;;;18.12;50.86;100137.03;5031976;27;99404;-66
2022/09/16 07:57:34;;;;;;;5.43;1.17;;;;;;;18.22;50.36;100140.72;5031751;28;96830;-67
2022/09/16 08:00:02;;;;;;;5.22;1.08;;;;;;;17.73;51.47;100147.09;5032188;27;96784;-66
2022/09/16 08:02:32;;;;;;;8.30;1.42;;;;;;;17.59;51.93;100154.41;5020751;28;99012;-66
2022/09/16 08:05:00;;;;;;;4.45;1.10;;;;;;;18.32;50.64;100149.72;5026885;27;98838;-67
2022/09/16 08:07:29;;;;;;;6.18;0.90;;;;;;;18.42;49.67;100148.06;5029826;28;96774;-66
2022/09/16 08:09:56;;;;;;;3.35;0.80;;;;;;;18.59;49.13;100147.63;5029824;27;97480;-67
2022/09/16 08:12:22;;;;;;;6.50;1.17;;;;;;;18.85;48.66;100150.06;5026581;28;98570;-67
2022/09/16 08:14:48;;;;;;;4.07;0.65;;;;;;;18.59;48.75;100150.31;5028105;27;98853;-66
2022/09/16 08:17:17;;;;;;;3.75;0.80;;;;;;;18.86;48.38;100154.47;5030019;28;97443;-66
2022/09/16 08:19:43;;;;;;;6.28;1.42;;;;;;;19.18;47.81;100147.38;5030275;27;96957;-66
2022/09/16 08:22:10;;;;;;;2.40;1.00;;;;;;;18.68;48.21;100151.41;5028071;27;99068;-67
2022/09/16 08:24:40;;;;;;;6.72;0.70;;;;;;;18.65;48.53;100147.16;5029264;27;98750;-66
2022/09/16 08:27:07;;;;;;;3.38;0.77;;;;;;;18.87;48.33;100149.00;5030800;27;97224;-67
2022/09/16 08:29:37;;;;;;;8.75;0.95;;;;;;;19.06;47.47;100159.09;5030030;27;96841;-67
2022/09/16 08:32:03;;;;;;;9.65;1.30;;;;;;;18.83;47.92;100157.41;5026172;27;99230;-66
2022/09/16 08:34:31;;;;;;;4.22;0.70;;;;;;;18.53;49.29;100145.41;5027362;27;98659;-66
2022/09/16 08:36:57;;;;;;;8.52;0.77;;;;;;;18.92;48.04;100152.16;5029595;27;97602;-65
2022/09/16 08:39:24;;;;;;;3.80;1.05;;;;;;;18.88;48.10;100150.72;5033109;27;97091;-66
2022/09/16 08:42:02;;;;;;;2.33;0.90;;;;;;;19.08;47.60;100146.44;5026650;28;98838;-65
2022/09/16 08:44:38;;;;;;;4.40;0.70;;;;;;;19.24;46.70;100146.03;5024660;28;98871;-66
2022/09/16 08:47:09;;;;;;;3.92;0.70;;;;;;;19.49;46.05;100148.50;5029459;28;97568;-66
2022/09/16 08:49:41;;;;;;;5.25;0.77;;;;;;;19.86;45.44;100143.59;5032049;28;97405;-66
2022/09/16 08:52:13;;;;;;;3.10;0.93;;;;;;;20.04;44.52;100152.78;5031631;28;98228;-66
2022/09/16 08:54:44;;;;;;;3.83;0.90;;;;;;;19.82;44.63;100142.19;5030796;28;99797;-68
2022/09/16 08:57:15;;;;;;;7.63;1.00;;;;;;;20.01;44.78;100142.34;5030590;28;98615;-66
2022/09/16 08:59:46;;;;;;;4.50;0.75;;;;;;;20.16;43.80;100142.84;5031783;27;96704;-66
2022/09/16 09:02:38;;;;;;;7.15;0.88;;;;;;;20.35;43.52;100139.50;5027545;28;98976;-66
2022/09/16 09:05:15;;;;;;;5.05;0.77;;;;;;;20.63;42.92;100147.72;5005998;27;100921;-66
2022/09/16 09:07:54;;;;;;;3.67;0.60;;;;;;;19.83;43.87;100144.69;5032423;28;96904;-66
2022/09/16 09:10:28;;;;;;;3.55;0.80;;;;;;;20.34;42.33;100141.34;5030200;28;97272;-66
2022/09/16 09:13:11;;;;;;;2.95;0.95;;;;;;;20.40;42.50;100137.28;5028874;27;101898;-65
2022/09/16 09:15:43;;;;;;;4.82;0.68;;;;;;;19.56;43.13;100130.09;5028381;27;99258;-65
2022/09/16 09:18:22;;;;;;;6.57;0.82;;;;;;;19.63;42.90;100137.47;5033283;28;96837;-66
2022/09/16 09:21:08;;;;;;;8.48;0.82;;;;;;;20.22;42.47;100140.50;5032087;27;96946;-66
2022/09/16 09:23:48;;;;;;;6.07;1.00;;;;;;;19.85;41.60;100126.66;5027994;28;99693;-67
2022/09/16 09:26:22;;;;;;;5.35;0.98;;;;;;;19.63;42.11;100118.69;5030475;27;99624;-65
2022/09/16 09:29:18;;;;;;;3.63;1.30;;;;;;;19.91;41.98;100130.66;5031500;28;96799;-66
2022/09/16 09:31:53;;;;;;;8.43;1.60;;;;;;;20.02;41.73;100124.41;5031000;27;97036;-66
2022/09/16 09:34:34;;;;;;;5.88;0.65;;;;;;;20.49;40.65;100125.72;5029486;28;99206;-67
2022/09/16 09:37:17;;;;;;;8.80;1.10;;;;;;;20.20;40.65;100129.06;5030153;27;97123;-65
2022/09/16 09:39:56;;;;;;;9.50;1.40;;;;;;;20.16;40.34;100130.28;5028027;28;96880;-66
2022/09/16 09:42:28;;;;;;;10.27;1.05;;;;;;;20.12;39.07;100123.50;5027215;28;96793;-66
2022/09/16 09:45:02;;;;;;;6.63;0.95;;;;;;;20.29;38.95;100105.94;5024023;27;98923;-66
2022/09/16 09:47:35;;;;;;;41.80;1.85;;;;;;;20.18;39.51;100117.59;5029591;28;99407;-65
2022/09/16 09:50:15;;;;;;;7.78;1.15;;;;;;;19.82;38.85;100116.19;5031064;28;97242;-66
2022/09/16 09:52:47;;;;;;;11.75;0.90;;;;;;;19.64;39.89;100111.50;5028019;27;97370;-65
2022/09/16 09:55:17;;;;;;;6.68;1.00;;;;;;;19.96;38.55;100116.84;5029982;27;99199;-66
2022/09/16 09:57:59;;;;;;;8.35;1.02;;;;;;;19.45;38.63;100113.00;5029395;28;98826;-65
2022/09/16 10:00:27;;;;;;;2.15;0.82;;;;;;;19.74;38.72;100112.47;5026595;28;97212;-67
2022/09/16 10:03:04;;;;;;;7.65;0.75;;;;;;;19.79;38.08;100104.88;5029924;27;96998;-67
2022/09/16 10:05:30;;;;;;;13.48;1.45;;;;;;;19.10;39.37;100106.97;5028857;28;99203;-67
2022/09/16 10:07:59;;;;;;;9.00;1.10;;;;;;;19.00;40.11;100106.03;5030958;28;98964;-65
2022/09/16 10:10:31;;;;;;;5.45;1.13;;;;;;;19.42;39.08;100104.38;5030726;27;97112;-67
2022/09/16 10:13:06;;;;;;;4.50;0.90;;;;;;;20.47;37.78;100095.53;5028440;28;96868;-66
2022/09/16 10:15:37;;;;;;;9.07;1.20;;;;;;;21.23;36.26;100102.19;5030077;28;99317;-66
2022/09/16 10:18:15;;;;;;;6.57;1.00;;;;;;;21.90;34.88;100096.03;5030407;27;99631;-66
2022/09/16 10:20:44;;;;;;;3.92;0.90;;;;;;;21.18;34.76;100093.72;5027871;28;96808;-66
2022/09/16 10:23:13;;;;;;;10.77;1.42;;;;;;;21.47;33.99;100084.69;5029305;28;97252;-66
2022/09/16 10:25:40;;;;;;;9.60;0.80;;;;;;;21.16;34.60;100098.34;5028878;28;99078;-66
2022/09/16 10:28:19;;;;;;;8.35;1.20;;;;;;;20.13;35.93;100101.06;5031038;27;98861;-67
2022/09/16 10:30:58;;;;;;;6.68;1.55;;;;;;;20.08;35.66;100084.53;5031429;28;97320;-66
2022/09/16 10:33:29;;;;;;;6.55;1.10;;;;;;;20.05;36.14;100086.59;5028073;27;97444;-66
2022/09/16 10:36:00;;;;;;;5.18;1.05;;;;;;;20.40;35.87;100089.84;5030975;27;99374;-67
2022/09/16 10:38:36;;;;;;;9.50;1.98;;;;;;;20.59;35.59;100089.94;5029277;28;98825;-65
2022/09/16 10:41:08;;;;;;;5.93;1.45;;;;;;;21.00;35.03;100088.94;5027833;28;97033;-66
2022/09/16 10:43:38;;;;;;;5.90;0.82;;;;;;;20.93;34.92;100093.19;5024182;28;97249;-67
2022/09/16 10:46:08;;;;;;;4.85;0.98;;;;;;;20.76;34.24;100091.13;5015739;27;99496;-66
2022/09/16 10:48:36;;;;;;;7.53;1.08;;;;;;;20.11;35.56;100097.66;5031235;28;102348;-66
2022/09/16 10:51:21;;;;;;;7.13;0.90;;;;;;;19.65;36.70;100089.09;5030238;27;97567;-67
2022/09/16 10:53:53;;;;;;;5.57;0.85;;;;;;;20.13;35.80;100094.84;5024133;28;96727;-66
2022/09/16 10:56:22;;;;;;;5.47;0.80;;;;;;;19.77;35.99;100093.44;5027895;28;99066;-67
2022/09/16 10:58:51;;;;;;;6.53;0.82;;;;;;;20.19;36.07;100087.13;5030327;28;99168;-66
2022/09/16 11:01:36;;;;;;;6.78;0.70;;;;;;;20.11;36.56;100086.06;5030202;28;96866;-65
2022/09/16 11:04:21;;;;;;;6.45;1.15;;;;;;;20.79;35.80;100080.13;5027328;27;96927;-67
2022/09/16 11:07:02;;;;;;;7.40;1.27;;;;;;;20.90;35.92;100079.16;5026883;28;98939;-67
2022/09/16 11:09:37;;;;;;;7.22;0.85;;;;;;;21.34;35.09;100077.88;5027939;28;100630;-66
2022/09/16 11:12:25;;;;;;;7.03;1.00;;;;;;;20.96;34.30;100082.16;5031598;28;97323;-67
2022/09/16 11:15:00;;;;;;;7.03;1.20;;;;;;;20.80;34.33;100079.16;5028997;27;96761;-66
2022/09/16 11:17:46;;;;;;;2.33;0.70;;;;;;;20.85;33.67;100082.25;5029838;28;101325;-67
2022/09/16 11:20:44;;;;;;;5.93;1.20;;;;;;;20.83;33.31;100094.97;5028810;27;98994;-67
2022/09/16 11:23:23;;;;;;;6.15;0.95;;;;;;;19.89;34.27;100077.16;5029094;27;97439;-66
2022/09/16 11:26:00;;;;;;;8.68;1.38;;;;;;;20.11;34.32;100081.56;5028459;28;96765;-66
2022/09/16 11:28:57;;;;;;;5.18;0.70;;;;;;;20.03;34.49;100078.69;5029386;28;97629;-68
2022/09/16 11:31:35;;;;;;;5.65;0.90;;;;;;;20.26;34.34;100082.94;5026068;28;99265;-66
2022/09/16 11:34:15;;;;;;;4.63;0.95;;;;;;;19.99;34.81;100069.19;5029639;27;97202;-66
2022/09/16 11:36:54;;;;;;;4.25;0.90;;;;;;;19.88;35.00;100070.13;5027682;28;96871;-67
2022/09/16 11:39:38;;;;;;;10.73;1.23;;;;;;;19.28;36.04;100061.81;5027410;28;98641;-67
2022/09/16 11:42:13;;;;;;;9.68;0.80;;;;;;;19.44;35.71;100064.91;5024985;27;97530;-67
2022/09/16 11:44:46;;;;;;;9.77;0.82;;;;;;;19.96;35.20;100060.56;5022489;28;97373;-68